Time;durP1;ratioP1;P1;durP2;ratioP2;P2;SDS_P1;SDS_P2;PMS_P1;PMS_P2;Temp;Humidity;BMP_temperature;BMP_pressure;BME280_temperature;BME280_humidity;BME280_pressure;Samples;Min_cycle;Max_cycle;Signal;HPM_P1;HPM_P2
2021/11/18 00:00:41;;;;;;;5.73;3.90;;;6.20;99.90;6.10;101262.00;;;;4935214;28;92141;-65
2021/11/18 00:03:09;;;;;;;8.97;4.93;;;6.20;99.90;6.10;101259.00;;;;4935119;28;92908;-66
2021/11/18 00:05:36;;;;;;;7.60;4.53;;;6.30;99.90;6.20;101260.00;;;;4927362;28;93471;-65
2021/11/18 00:08:04;;;;;;;7.27;4.43;;;6.30;99.90;6.30;101265.00;;;;4915021;28;93833;-66
2021/11/18 00:10:36;;;;;;;8.40;5.70;;;6.30;99.90;6.30;101271.00;;;;4915139;28;92971;-66
2021/11/18 00:13:05;;;;;;;5.20;3.97;;;6.40;99.90;6.30;101281.00;;;;4919859;28;92832;-65
2021/11/18 00:15:32;;;;;;;8.73;4.47;;;6.40;99.90;6.40;101279.00;;;;4914984;28;93353;-65
2021/11/18 00:18:08;;;;;;;4.73;3.97;;;6.50;99.90;6.40;101272.00;;;;4915161;28;93005;-65
2021/11/18 00:20:43;;;;;;;7.27;3.63;;;6.50;99.90;6.50;101279.00;;;;4914632;28;92886;-65
2021/11/18 00:23:09;;;;;;;6.30;4.63;;;6.60;99.90;6.50;101279.00;;;;4913486;28;92884;-63
2021/11/18 00:25:35;;;;;;;5.73;3.60;;;6.60;99.90;6.50;101280.00;;;;4931263;28;123012;-64
2021/11/18 00:28:01;;;;;;;6.23;3.60;;;6.60;99.90;6.60;101283.00;;;;4931521;28;111365;-65
2021/11/18 00:30:28;;;;;;;9.90;4.63;;;6.60;99.90;6.60;101292.00;;;;4932262;28;104979;-64
2021/11/18 00:32:54;;;;;;;4.23;3.67;;;6.60;99.90;6.60;101285.00;;;;4933909;28;95755;-65
2021/11/18 00:35:24;;;;;;;6.93;4.20;;;6.70;99.90;6.60;101296.00;;;;4933974;28;93433;-64
2021/11/18 00:37:50;;;;;;;5.47;4.57;;;6.70;99.90;6.60;101291.00;;;;4934174;28;93536;-65
2021/11/18 00:40:22;;;;;;;5.83;3.70;;;6.70;99.90;6.60;101287.00;;;;4933205;28;109424;-64
2021/11/18 00:42:48;;;;;;;6.93;3.90;;;6.80;99.90;6.60;101291.00;;;;4934903;28;92971;-65
2021/11/18 00:45:16;;;;;;;6.80;3.83;;;6.70;99.90;6.60;101299.00;;;;4933668;28;113951;-63
2021/11/18 00:47:42;;;;;;;4.40;2.93;;;6.70;99.90;6.60;101295.00;;;;4933923;28;94001;-64
2021/11/18 00:50:09;;;;;;;6.33;4.67;;;6.70;99.90;6.60;101300.00;;;;4933556;28;104184;-65
2021/11/18 00:52:35;;;;;;;7.17;4.50;;;6.70;99.90;6.60;101299.00;;;;4931005;28;92925;-64
2021/11/18 00:55:01;;;;;;;7.93;4.90;;;6.70;99.90;6.60;101309.00;;;;4933435;28;111493;-64
2021/11/18 00:57:26;;;;;;;5.20;4.10;;;6.70;99.90;6.60;101303.00;;;;4933553;28;93875;-64
2021/11/18 00:59:52;;;;;;;8.43;5.07;;;6.70;99.90;6.60;101307.00;;;;4933429;28;110430;-64
2021/11/18 01:02:18;;;;;;;10.30;5.37;;;6.70;99.90;6.60;101308.00;;;;4933522;28;108904;-64
2021/11/18 01:04:46;;;;;;;8.17;4.93;;;6.70;99.90;6.50;101306.00;;;;4933268;28;123245;-64
2021/11/18 01:07:12;;;;;;;8.47;5.10;;;6.70;99.90;6.50;101305.00;;;;4933367;28;93411;-64
2021/11/18 01:09:38;;;;;;;6.53;4.67;;;6.60;99.90;6.50;101310.00;;;;4933367;28;108829;-64
2021/11/18 01:12:06;;;;;;;7.30;4.77;;;6.60;99.90;6.50;101315.00;;;;4932333;28;93306;-64
2021/11/18 01:14:33;;;;;;;6.80;4.63;;;6.60;99.90;6.50;101308.00;;;;4934461;28;92759;-64
2021/11/18 01:16:59;;;;;;;7.97;4.80;;;6.60;99.90;6.50;101316.00;;;;4932946;28;93120;-65
2021/11/18 01:19:25;;;;;;;7.73;4.47;;;6.70;99.90;6.40;101317.00;;;;4930117;28;92885;-65
2021/11/18 01:21:53;;;;;;;8.53;4.73;;;6.60;99.90;6.40;101324.00;;;;4913450;28;93657;-64
2021/11/18 01:24:19;;;;;;;10.13;5.43;;;6.60;99.90;6.40;101317.00;;;;4913895;28;107253;-64
2021/11/18 01:26:45;;;;;;;10.97;5.57;;;6.50;99.90;6.40;101329.00;;;;4911223;28;102492;-64
2021/11/18 01:29:11;;;;;;;7.07;5.53;;;6.30;99.90;6.30;101334.00;;;;4914969;28;92883;-65
2021/11/18 01:31:38;;;;;;;7.93;5.03;;;6.50;99.90;6.30;101332.00;;;;4914164;28;109256;-65
2021/11/18 01:34:04;;;;;;;7.77;5.20;;;6.40;99.90;6.10;101339.00;;;;4913331;28;93205;-65
2021/11/18 01:36:30;;;;;;;6.70;4.60;;;6.40;99.90;6.10;101341.00;;;;4913783;28;93574;-65
2021/11/18 01:38:56;;;;;;;6.33;3.60;;;6.40;99.90;6.00;101340.00;;;;4914812;28;92210;-65
2021/11/18 01:41:28;;;;;;;9.40;4.70;;;6.20;99.90;5.90;101339.00;;;;4914981;28;107533;-65
2021/11/18 01:44:01;;;;;;;7.53;4.93;;;6.10;99.90;5.90;101339.00;;;;4916398;28;112502;-65
2021/11/18 01:46:36;;;;;;;7.53;4.53;;;6.30;99.90;5.80;101343.00;;;;4914856;28;98426;-64
2021/11/18 01:49:05;;;;;;;9.53;4.90;;;6.00;99.90;5.80;101337.00;;;;4917504;28;92826;-65
2021/11/18 01:51:36;;;;;;;10.87;5.00;;;6.30;99.90;5.70;101339.00;;;;4937015;28;92649;-63
2021/11/18 01:54:04;;;;;;;9.63;5.43;;;5.90;99.90;5.70;101340.00;;;;4950697;28;93874;-65
2021/11/18 01:56:33;;;;;;;9.93;5.30;;;5.90;99.90;5.70;101331.00;;;;4924003;28;92980;-65
2021/11/18 01:59:17;;;;;;;7.37;5.87;;;5.80;99.90;5.60;101331.00;;;;4917628;28;92754;-65
2021/11/18 02:01:47;;;;;;;6.87;5.20;;;5.90;99.90;5.60;101332.00;;;;4917263;28;92767;-65
2021/11/18 02:04:18;;;;;;;10.13;5.40;;;5.80;99.90;5.60;101342.00;;;;4935243;28;92741;-65
2021/11/18 02:07:07;;;;;;;11.00;7.03;;;5.70;99.90;5.60;101350.00;;;;4936594;28;92902;-65
2021/11/18 02:09:40;;;;;;;7.77;4.70;;;5.70;99.90;5.60;101348.00;;;;4936208;28;93035;-64
2021/11/18 02:12:18;;;;;;;8.87;5.83;;;5.70;99.90;5.60;101340.00;;;;4936608;28;94255;-64
2021/11/18 02:14:45;;;;;;;7.70;5.80;;;5.80;99.90;5.60;101335.00;;;;4920912;28;93314;-65
2021/11/18 02:17:15;;;;;;;10.03;5.17;;;5.80;99.90;5.70;101344.00;;;;4920043;28;94913;-65
2021/11/18 02:19:58;;;;;;;11.47;5.23;;;5.80;99.90;5.70;101348.00;;;;4936695;28;92906;-64
2021/11/18 02:22:25;;;;;;;13.43;6.47;;;5.90;99.90;5.70;101349.00;;;;4936597;28;92799;-65
2021/11/18 02:24:59;;;;;;;7.60;4.43;;;6.30;99.90;5.70;101357.00;;;;4936160;28;94003;-64
2021/11/18 02:27:28;;;;;;;11.80;5.27;;;5.80;99.90;5.70;101360.00;;;;4935679;28;106067;-64
2021/11/18 02:29:57;;;;;;;10.07;5.97;;;6.30;99.90;5.80;101371.00;;;;4936661;28;92373;-63
2021/11/18 02:32:31;;;;;;;11.07;6.47;;;5.90;99.90;5.70;101366.00;;;;4916924;28;92771;-65
2021/11/18 02:35:06;;;;;;;9.40;5.97;;;5.80;99.90;5.70;101360.00;;;;4931048;28;92808;-65
2021/11/18 02:37:33;;;;;;;10.37;4.90;;;5.80;99.90;5.70;101360.00;;;;4916174;28;93997;-65
2021/11/18 02:39:59;;;;;;;10.37;5.03;;;6.10;99.90;5.70;101357.00;;;;4917035;28;92897;-64
2021/11/18 02:42:26;;;;;;;7.90;4.73;;;5.80;99.90;5.70;101365.00;;;;4915672;28;108429;-65
2021/11/18 02:44:52;;;;;;;10.40;6.00;;;5.80;99.90;5.70;101361.00;;;;4923122;28;93999;-65
2021/11/18 02:47:18;;;;;;;8.37;5.10;;;6.10;99.90;5.70;101361.00;;;;4935713;28;93128;-65
2021/11/18 02:49:51;;;;;;;8.83;5.27;;;5.80;99.90;5.70;101363.00;;;;4935490;28;92950;-65
2021/11/18 02:52:29;;;;;;;10.50;6.43;;;5.80;99.90;5.70;101371.00;;;;4934688;28;93326;-64
2021/11/18 02:54:59;;;;;;;9.20;5.73;;;5.90;99.90;5.70;101372.00;;;;4935159;28;92358;-65
2021/11/18 02:57:26;;;;;;;6.03;4.40;;;6.60;99.90;5.70;101360.00;;;;4915863;28;110601;-64
2021/11/18 02:59:51;;;;;;;11.13;5.67;;;5.90;99.90;5.70;101375.00;;;;4915963;28;102737;-66
2021/11/18 03:02:17;;;;;;;7.90;4.90;;;5.90;99.90;5.70;101378.00;;;;4915285;28;106362;-65
2021/11/18 03:04:43;;;;;;;8.03;5.50;;;6.10;99.90;5.70;101373.00;;;;4914825;28;124052;-64
2021/11/18 03:07:09;;;;;;;5.93;5.33;;;6.50;99.90;5.70;101379.00;;;;4933186;28;123913;-65
2021/11/18 03:09:35;;;;;;;8.83;4.90;;;5.90;99.90;5.70;101385.00;;;;4936817;28;92783;-65
2021/11/18 03:12:01;;;;;;;9.07;5.17;;;5.90;99.90;5.70;101380.00;;;;4926588;28;108133;-64
2021/11/18 03:14:29;;;;;;;11.73;6.03;;;6.40;99.90;5.70;101377.00;;;;4914747;28;123735;-66
2021/11/18 03:16:55;;;;;;;9.50;5.40;;;5.80;99.90;5.60;101379.00;;;;4914188;28;92947;-64
2021/11/18 03:19:21;;;;;;;10.47;6.57;;;6.10;99.90;5.60;101376.00;;;;4916384;28;92358;-64
2021/11/18 03:21:48;;;;;;;10.30;4.87;;;5.70;99.90;5.60;101380.00;;;;4914905;28;109379;-64
2021/11/18 03:24:13;;;;;;;12.10;6.00;;;5.80;99.90;5.70;101373.00;;;;4916256;28;93592;-64
2021/11/18 03:26:39;;;;;;;9.97;5.90;;;5.80;99.90;5.70;101364.00;;;;4915349;28;98937;-65
2021/11/18 03:29:08;;;;;;;10.10;5.70;;;5.90;99.90;5.70;101357.00;;;;4915803;28;110380;-64
2021/11/18 03:31:34;;;;;;;10.13;4.93;;;6.10;99.90;5.70;101384.00;;;;4916191;28;93351;-64
2021/11/18 03:34:08;;;;;;;8.17;5.10;;;5.80;99.90;5.80;101380.00;;;;4916345;28;93370;-65
2021/11/18 03:36:37;;;;;;;9.60;6.27;;;5.80;99.90;5.80;101371.00;;;;4915997;28;93135;-64
2021/11/18 03:39:07;;;;;;;8.13;5.40;;;5.90;99.90;5.90;101375.00;;;;4917018;28;93193;-64
2021/11/18 03:41:38;;;;;;;7.57;4.63;;;6.00;99.90;5.90;101384.00;;;;4935116;28;92767;-63
2021/11/18 03:44:08;;;;;;;10.07;5.93;;;5.90;99.90;6.00;101390.00;;;;4935744;28;92251;-65
2021/11/18 03:47:02;;;;;;;7.23;5.07;;;6.00;99.90;6.00;101391.00;;;;4934975;28;92746;-65
2021/11/18 03:49:29;;;;;;;16.50;5.43;;;6.10;99.90;6.10;101390.00;;;;4935743;28;92832;-65
2021/11/18 03:51:58;;;;;;;7.00;4.70;;;6.50;99.90;6.10;101386.00;;;;4934431;28;93948;-64
2021/11/18 03:54:28;;;;;;;7.57;5.00;;;6.20;99.90;6.20;101389.00;;;;4935280;28;93219;-64
2021/11/18 03:56:54;;;;;;;10.17;5.93;;;6.30;99.90;6.20;101399.00;;;;4932953;28;92806;-65
2021/11/18 03:59:25;;;;;;;7.57;4.97;;;6.30;99.90;6.30;101400.00;;;;4934540;28;107626;-65
2021/11/18 04:01:52;;;;;;;7.00;5.27;;;6.40;99.90;6.30;101403.00;;;;4935437;28;93179;-64
2021/11/18 04:04:26;;;;;;;9.23;5.40;;;5.80;99.90;6.40;101417.00;;;;4934875;28;93781;-65
2021/11/18 04:06:52;;;;;;;10.10;5.30;;;6.50;99.90;6.40;101410.00;;;;4931819;28;93197;-64
2021/11/18 04:09:17;;;;;;;7.57;5.70;;;7.00;99.90;6.40;101397.00;;;;4915051;28;109259;-64
2021/11/18 04:11:49;;;;;;;10.10;5.70;;;6.50;99.90;6.30;101399.00;;;;4914992;28;92925;-64
2021/11/18 04:14:17;;;;;;;8.10;6.00;;;6.50;99.90;6.30;101409.00;;;;4915615;28;93595;-64
2021/11/18 04:16:42;;;;;;;10.27;5.40;;;6.40;99.90;6.20;101391.00;;;;4914434;28;97021;-64
2021/11/18 04:19:09;;;;;;;11.60;5.40;;;6.40;99.90;6.20;101380.00;;;;4916196;28;92862;-65
2021/11/18 04:21:40;;;;;;;8.10;5.20;;;6.40;99.90;6.10;101383.00;;;;4915115;28;92853;-65
2021/11/18 04:24:10;;;;;;;9.40;5.27;;;6.30;99.90;6.10;101383.00;;;;4915109;28;93833;-64
2021/11/18 04:26:36;;;;;;;11.57;5.93;;;6.30;99.90;6.00;101373.00;;;;4915309;28;93002;-64
2021/11/18 04:29:04;;;;;;;9.43;5.17;;;6.20;99.90;6.00;101371.00;;;;4915313;28;92955;-65
2021/11/18 04:31:30;;;;;;;7.63;4.87;;;6.20;99.90;6.00;101372.00;;;;4914945;28;92708;-65
2021/11/18 04:33:57;;;;;;;5.43;4.63;;;6.20;99.90;6.00;101375.00;;;;4915020;28;93311;-65
2021/11/18 04:36:25;;;;;;;9.13;5.57;;;6.10;99.90;6.00;101374.00;;;;4929730;28;122129;-64
2021/11/18 04:38:52;;;;;;;8.00;4.60;;;6.10;99.90;5.90;101384.00;;;;4934371;28;93116;-64
2021/11/18 04:41:21;;;;;;;12.60;4.70;;;6.20;99.90;5.90;101387.00;;;;4933921;28;93776;-63
2021/11/18 04:43:47;;;;;;;9.23;4.87;;;6.10;99.90;5.80;101398.00;;;;4934701;28;93291;-64
2021/11/18 04:46:14;;;;;;;7.20;5.07;;;6.10;99.90;5.80;101395.00;;;;4934435;28;94168;-64
2021/11/18 04:48:41;;;;;;;9.47;5.77;;;5.90;99.90;5.80;101410.00;;;;4932949;28;92774;-64
2021/11/18 04:51:10;;;;;;;8.80;4.97;;;5.90;99.90;5.80;101403.00;;;;4948827;28;93006;-65
2021/11/18 04:53:36;;;;;;;8.23;5.47;;;6.40;99.90;5.80;101400.00;;;;4934352;28;93505;-65
2021/11/18 04:56:05;;;;;;;7.23;4.60;;;5.90;99.90;5.80;101401.00;;;;4933654;28;93705;-66
2021/11/18 04:58:32;;;;;;;5.40;4.03;;;5.90;99.90;5.80;101403.00;;;;4934871;28;92300;-64
2021/11/18 05:00:58;;;;;;;14.53;5.10;;;5.90;99.90;5.80;101417.00;;;;4934300;28;92895;-65
2021/11/18 05:03:27;;;;;;;11.43;5.33;;;5.90;99.90;5.80;101416.00;;;;4922692;28;123676;-65
2021/11/18 05:05:54;;;;;;;10.37;5.03;;;5.90;99.90;5.80;101415.00;;;;4913381;28;103127;-66
2021/11/18 05:08:20;;;;;;;8.70;5.20;;;5.90;99.90;5.80;101411.00;;;;4912888;28;93474;-65
2021/11/18 05:10:49;;;;;;;7.57;4.63;;;5.90;99.90;5.80;101416.00;;;;4922502;28;92815;-65
2021/11/18 05:13:18;;;;;;;14.73;4.70;;;5.90;99.90;5.80;101441.00;;;;4933327;28;93757;-66
2021/11/18 05:15:47;;;;;;;6.13;4.40;;;6.50;99.90;5.80;101436.00;;;;4932143;28;113110;-65
2021/11/18 05:18:14;;;;;;;7.10;5.37;;;5.80;99.90;5.90;101449.00;;;;4933624;28;92813;-65
2021/11/18 05:20:41;;;;;;;9.17;4.93;;;6.00;99.90;5.90;101463.00;;;;4934208;28;92929;-65
2021/11/18 05:23:08;;;;;;;8.13;4.80;;;6.00;99.90;5.90;101445.00;;;;4934159;28;92553;-65
2021/11/18 05:25:34;;;;;;;8.60;5.40;;;6.00;99.90;6.00;101438.00;;;;4933746;28;93093;-65
2021/11/18 05:28:00;;;;;;;10.87;4.33;;;6.10;99.90;6.00;101438.00;;;;4932545;28;110818;-66
2021/11/18 05:30:28;;;;;;;8.43;4.40;;;6.50;99.90;6.00;101436.00;;;;4927999;28;108160;-63
2021/11/18 05:32:56;;;;;;;6.23;4.47;;;6.10;99.90;6.00;101446.00;;;;4913125;28;93113;-65
2021/11/18 05:35:26;;;;;;;7.33;4.83;;;6.20;99.90;6.00;101438.00;;;;4913631;28;94014;-65
2021/11/18 05:37:52;;;;;;;8.90;5.37;;;7.10;99.90;6.00;101438.00;;;;4914180;28;93298;-65
2021/11/18 05:40:20;;;;;;;5.40;4.23;;;6.10;99.90;6.00;101434.00;;;;4914193;28;93074;-64
2021/11/18 05:42:47;;;;;;;4.63;4.23;;;6.20;99.90;6.00;101448.00;;;;4912888;28;112721;-65
2021/11/18 05:45:18;;;;;;;8.03;3.90;;;6.80;99.90;6.00;101431.00;;;;4913926;28;93302;-65
2021/11/18 05:47:43;;;;;;;5.27;3.60;;;6.10;99.90;6.00;101442.00;;;;4914309;28;92164;-65
2021/11/18 05:50:12;;;;;;;10.20;4.67;;;6.10;99.90;6.00;101439.00;;;;4916206;28;109882;-63
2021/11/18 05:52:39;;;;;;;7.57;4.63;;;6.10;99.90;5.90;101441.00;;;;4932809;28;93325;-65
2021/11/18 05:55:07;;;;;;;8.17;4.17;;;6.10;99.90;5.90;101453.00;;;;4947008;28;93890;-64
2021/11/18 05:57:33;;;;;;;5.87;3.43;;;6.10;99.90;5.90;101452.00;;;;4932820;28;98449;-64
2021/11/18 05:59:59;;;;;;;7.63;4.00;;;6.00;99.90;5.90;101458.00;;;;4913786;28;108598;-64
2021/11/18 06:02:25;;;;;;;4.77;3.67;;;6.10;99.90;6.00;101457.00;;;;4912471;28;115072;-65
2021/11/18 06:04:52;;;;;;;6.87;4.47;;;6.00;99.90;6.00;101462.00;;;;4911497;28;124047;-64
2021/11/18 06:07:18;;;;;;;4.57;3.23;;;6.10;99.90;6.00;101456.00;;;;4913892;28;92819;-64
2021/11/18 06:09:44;;;;;;;5.30;4.10;;;6.10;99.90;6.00;101466.00;;;;4912460;28;92793;-65
2021/11/18 06:12:11;;;;;;;6.77;3.93;;;6.10;99.90;6.00;101469.00;;;;4913036;28;122693;-64
2021/11/18 06:14:37;;;;;;;5.90;4.07;;;6.10;99.90;6.00;101479.00;;;;4913402;28;93074;-64
2021/11/18 06:17:03;;;;;;;7.97;3.40;;;6.10;99.90;5.90;101476.00;;;;4913240;28;110246;-65
2021/11/18 06:19:29;;;;;;;5.80;4.00;;;6.10;99.90;5.90;101472.00;;;;4912884;28;97586;-65
2021/11/18 06:21:56;;;;;;;4.83;3.03;;;6.10;99.90;5.90;101478.00;;;;4912625;28;122324;-65
2021/11/18 06:24:25;;;;;;;7.70;4.50;;;6.60;99.90;5.80;101487.00;;;;4914091;28;93833;-65
2021/11/18 06:26:54;;;;;;;4.90;3.73;;;6.10;99.90;5.80;101472.00;;;;4923898;28;92846;-65
2021/11/18 06:29:21;;;;;;;3.90;3.37;;;6.30;99.90;5.80;101486.00;;;;4925769;28;94276;-65
2021/11/18 06:31:48;;;;;;;12.43;3.60;;;6.20;99.90;5.70;101476.00;;;;4918086;28;93941;-65
2021/11/18 06:34:15;;;;;;;5.73;3.33;;;6.30;99.90;5.70;101491.00;;;;4916233;28;97500;-65
2021/11/18 06:36:43;;;;;;;6.10;3.73;;;5.90;99.90;5.70;101495.00;;;;4918316;28;91997;-65
2021/11/18 06:39:10;;;;;;;11.23;3.40;;;5.80;99.90;5.70;101485.00;;;;4916806;28;92802;-64
2021/11/18 06:41:36;;;;;;;5.40;3.83;;;5.80;99.90;5.60;101493.00;;;;4915783;28;104756;-64
2021/11/18 06:44:03;;;;;;;15.67;4.57;;;5.80;99.90;5.60;101487.00;;;;4916448;28;122571;-64
2021/11/18 06:46:31;;;;;;;9.90;3.90;;;5.80;99.90;5.60;101494.00;;;;4927310;28;92926;-64
2021/11/18 06:48:57;;;;;;;7.13;4.23;;;5.70;99.90;5.60;101478.00;;;;4935984;28;93052;-64
2021/11/18 06:51:23;;;;;;;7.93;3.70;;;5.70;99.90;5.60;101487.00;;;;4935402;28;93048;-65
2021/11/18 06:53:52;;;;;;;6.00;3.87;;;5.70;99.90;5.50;101490.00;;;;4918649;28;93855;-65
2021/11/18 06:56:20;;;;;;;5.77;3.50;;;5.70;99.90;5.50;101486.00;;;;4917393;28;93311;-65
2021/11/18 06:58:45;;;;;;;9.07;3.53;;;5.70;99.90;5.50;101488.00;;;;4917171;28;92812;-65
2021/11/18 07:01:11;;;;;;;4.80;3.43;;;6.40;99.90;5.60;101483.00;;;;4915272;28;120790;-66
2021/11/18 07:03:40;;;;;;;4.83;3.10;;;5.60;99.90;5.60;101492.00;;;;4917138;28;96244;-66
2021/11/18 07:06:07;;;;;;;9.63;4.73;;;6.70;99.90;5.60;101487.00;;;;4923569;28;92713;-65
2021/11/18 07:08:35;;;;;;;5.97;4.03;;;5.80;99.90;5.70;101487.00;;;;4935301;28;93887;-64
2021/11/18 07:11:01;;;;;;;4.37;3.37;;;5.90;99.90;5.70;101494.00;;;;4935822;28;93865;-65
2021/11/18 07:13:29;;;;;;;6.27;3.70;;;5.80;99.90;5.70;101498.00;;;;4935350;28;92992;-66
2021/11/18 07:15:55;;;;;;;7.80;3.70;;;5.80;99.90;5.80;101486.00;;;;4935648;28;92988;-64
2021/11/18 07:18:23;;;;;;;6.07;3.90;;;5.90;99.90;5.80;101501.00;;;;4934557;28;92578;-65
2021/11/18 07:20:51;;;;;;;6.33;3.57;;;6.00;99.90;5.80;101498.00;;;;4934710;28;94177;-65
2021/11/18 07:23:17;;;;;;;5.40;3.27;;;6.40;99.90;5.90;101512.00;;;;4935264;28;93680;-65
2021/11/18 07:25:45;;;;;;;4.93;3.60;;;6.00;99.90;5.90;101508.00;;;;4934335;28;91993;-65
2021/11/18 07:28:12;;;;;;;4.87;3.43;;;6.00;99.90;5.90;101505.00;;;;4924477;28;92811;-65
2021/11/18 07:30:40;;;;;;;6.53;3.57;;;6.00;99.90;5.90;101510.00;;;;4934836;28;110080;-66
2021/11/18 07:33:05;;;;;;;7.13;3.50;;;6.00;99.90;5.90;101516.00;;;;4934493;28;93965;-64
2021/11/18 07:35:32;;;;;;;5.00;3.23;;;6.00;99.90;5.90;101510.00;;;;4923684;28;106704;-65
2021/11/18 07:37:58;;;;;;;6.20;3.37;;;6.00;99.90;5.90;101515.00;;;;4934949;28;92918;-65
2021/11/18 07:40:25;;;;;;;5.67;3.80;;;6.10;99.90;6.00;101506.00;;;;4933707;28;93035;-65
2021/11/18 07:42:51;;;;;;;10.60;3.40;;;6.50;99.90;6.00;101523.00;;;;4933225;28;93313;-66
2021/11/18 07:45:21;;;;;;;5.33;3.77;;;6.20;99.90;6.10;101508.00;;;;4934474;28;92779;-65
2021/11/18 07:47:47;;;;;;;6.23;2.93;;;6.10;99.90;6.30;101523.00;;;;4916159;28;92756;-65
2021/11/18 07:50:14;;;;;;;5.70;3.43;;;6.30;99.90;6.50;101520.00;;;;4915108;28;121154;-65
2021/11/18 07:52:40;;;;;;;4.90;3.83;;;6.50;99.90;6.70;101520.00;;;;4913926;28;122234;-65
2021/11/18 07:55:10;;;;;;;4.60;3.53;;;6.70;99.90;7.00;101523.00;;;;4915969;28;92955;-65
2021/11/18 07:57:36;;;;;;;11.07;3.60;;;7.00;99.90;7.30;101513.00;;;;4915875;28;93843;-65
2021/11/18 08:00:10;;;;;;;8.17;4.43;;;7.20;99.90;7.60;101514.00;;;;4914589;28;109257;-65
2021/11/18 08:02:36;;;;;;;7.90;3.97;;;7.50;99.90;7.90;101519.00;;;;4915056;28;93713;-66
2021/11/18 08:05:03;;;;;;;5.90;3.37;;;7.80;99.90;8.00;101510.00;;;;4921739;28;102295;-64
2021/11/18 08:07:29;;;;;;;5.60;3.43;;;8.10;99.90;8.10;101510.00;;;;4934580;28;95648;-65
2021/11/18 08:09:55;;;;;;;4.87;2.33;;;8.20;99.90;8.10;101523.00;;;;4915606;28;121032;-64
2021/11/18 08:12:21;;;;;;;9.30;3.50;;;8.20;99.90;8.10;101521.00;;;;4915542;28;93926;-64
2021/11/18 08:14:47;;;;;;;6.50;3.20;;;8.20;99.90;8.00;101528.00;;;;4925648;28;110415;-64
2021/11/18 08:17:13;;;;;;;9.53;3.80;;;8.20;99.90;7.90;101523.00;;;;4935311;28;92738;-64
2021/11/18 08:19:38;;;;;;;13.83;3.43;;;8.10;99.90;7.90;101531.00;;;;4933424;28;111279;-64
2021/11/18 08:22:04;;;;;;;5.50;2.97;;;8.10;99.90;7.80;101522.00;;;;4931438;28;123069;-65
2021/11/18 08:24:30;;;;;;;5.63;3.50;;;8.00;99.90;7.80;101537.00;;;;4934536;28;92906;-63
2021/11/18 08:26:58;;;;;;;6.47;3.13;;;7.90;99.90;7.80;101536.00;;;;4934692;28;92686;-64
2021/11/18 08:29:28;;;;;;;4.53;3.23;;;7.90;99.90;7.80;101553.00;;;;4934418;28;93639;-66
2021/11/18 08:31:55;;;;;;;4.73;3.23;;;7.90;99.90;7.80;101550.00;;;;4933182;28;115457;-64
2021/11/18 08:34:24;;;;;;;5.53;3.03;;;7.90;99.90;7.80;101566.00;;;;4934375;28;93001;-64
2021/11/18 08:36:50;;;;;;;6.30;3.10;;;7.90;99.90;7.80;101573.00;;;;4934776;28;92859;-64
2021/11/18 08:39:20;;;;;;;5.23;3.00;;;7.90;99.90;7.90;101579.00;;;;4933635;28;92985;-65
2021/11/18 08:41:55;;;;;;;5.63;3.17;;;7.90;99.90;7.90;101578.00;;;;4934352;28;92997;-64
2021/11/18 08:44:22;;;;;;;4.80;2.67;;;7.90;99.90;7.90;101571.00;;;;4949006;28;92856;-64
2021/11/18 08:46:49;;;;;;;7.83;3.67;;;7.90;99.90;7.90;101573.00;;;;4948435;28;93900;-65
2021/11/18 08:49:17;;;;;;;3.80;2.80;;;8.00;99.90;7.90;101574.00;;;;4934463;28;94116;-65
2021/11/18 08:51:43;;;;;;;5.33;2.97;;;8.00;99.90;7.90;101570.00;;;;4932882;28;93083;-65
2021/11/18 08:54:15;;;;;;;14.33;2.87;;;8.00;99.90;7.90;101574.00;;;;4934153;28;100268;-64
2021/11/18 08:56:41;;;;;;;8.47;3.13;;;8.00;99.90;7.90;101583.00;;;;4934260;28;92809;-64
2021/11/18 08:59:07;;;;;;;5.27;3.10;;;8.00;99.90;7.90;101582.00;;;;4933114;28;112747;-64
2021/11/18 09:01:42;;;;;;;7.70;3.57;;;7.90;99.90;7.90;101571.00;;;;4933639;28;93358;-63
2021/11/18 09:04:16;;;;;;;6.10;2.67;;;8.00;99.90;7.90;101576.00;;;;4934674;28;92416;-64
2021/11/18 09:06:44;;;;;;;4.53;3.40;;;8.00;99.90;8.00;101581.00;;;;4932916;28;98159;-65
2021/11/18 09:09:11;;;;;;;5.23;3.07;;;8.00;99.90;8.00;101574.00;;;;4914957;28;93306;-65
2021/11/18 09:11:38;;;;;;;4.10;2.90;;;8.00;99.90;8.00;101582.00;;;;4912738;28;110781;-64
2021/11/18 09:14:05;;;;;;;4.60;3.40;;;8.10;99.90;8.10;101562.00;;;;4914833;28;92871;-66
2021/11/18 09:16:36;;;;;;;6.97;3.00;;;8.20;99.90;8.10;101575.00;;;;4929041;28;92626;-65
2021/11/18 09:19:05;;;;;;;4.37;2.57;;;8.20;99.90;8.20;101584.00;;;;4934085;28;92945;-64
2021/11/18 09:21:32;;;;;;;5.80;2.93;;;8.20;99.90;8.20;101573.00;;;;4933151;28;93920;-65
2021/11/18 09:24:08;;;;;;;9.93;3.00;;;8.30;99.90;8.30;101576.00;;;;4934618;28;93041;-65
2021/11/18 09:26:39;;;;;;;6.07;2.83;;;8.30;99.90;8.30;101589.00;;;;4933654;28;97900;-66
2021/11/18 09:29:06;;;;;;;3.40;2.33;;;8.40;99.90;8.30;101583.00;;;;4934548;28;92879;-65
2021/11/18 09:31:33;;;;;;;7.73;3.07;;;8.30;99.90;8.20;101583.00;;;;4933083;28;93289;-65
2021/11/18 09:34:00;;;;;;;5.13;3.20;;;8.30;99.90;8.20;101587.00;;;;4932166;28;109390;-65
2021/11/18 09:36:28;;;;;;;5.30;2.90;;;8.30;99.90;8.10;101597.00;;;;4916331;28;93949;-65
2021/11/18 09:38:58;;;;;;;5.97;2.60;;;8.30;99.90;8.10;101599.00;;;;4914463;28;94080;-65
2021/11/18 09:41:27;;;;;;;3.87;3.07;;;8.20;99.90;8.10;101607.00;;;;4913625;28;92883;-65
2021/11/18 09:44:11;;;;;;;4.17;2.87;;;8.20;99.90;8.00;101603.00;;;;4913865;28;92691;-65
2021/11/18 09:47:08;;;;;;;7.47;2.80;;;8.20;99.90;7.90;101597.00;;;;4912884;28;93158;-65
2021/11/18 09:50:11;;;;;;;3.87;2.77;;;8.10;99.90;7.90;101592.00;;;;4914405;28;93114;-65
2021/11/18 09:53:10;;;;;;;2.47;1.97;;;8.00;99.90;7.90;101588.00;;;;4928007;28;93013;-64
2021/11/18 09:56:05;;;;;;;8.23;3.00;;;8.00;99.90;7.90;101603.00;;;;4928302;28;102548;-64
2021/11/18 09:58:58;;;;;;;8.80;3.20;;;8.00;99.90;7.90;101599.00;;;;4913288;28;95160;-65
2021/11/18 10:02:00;;;;;;;7.13;3.03;;;8.00;99.90;8.00;101589.00;;;;4913565;28;92955;-65
2021/11/18 10:04:43;;;;;;;4.93;3.17;;;8.00;99.90;8.00;101577.00;;;;4931229;28;94097;-65
2021/11/18 10:07:45;;;;;;;2.50;2.13;;;8.10;99.90;8.00;101589.00;;;;4917578;28;92824;-64
2021/11/18 10:11:06;;;;;;;6.67;3.27;;;8.10;99.90;8.10;101573.00;;;;4917578;28;92707;-66
2021/11/18 10:14:16;;;;;;;6.87;3.07;;;8.20;99.90;8.10;101563.00;;;;4916270;28;92906;-64
2021/11/18 10:16:50;;;;;;;8.43;3.70;;;8.20;99.90;8.20;101573.00;;;;4917047;28;92819;-65
2021/11/18 10:19:37;;;;;;;7.03;2.53;;;8.30;99.90;8.30;101587.00;;;;4915450;28;92922;-65
2021/11/18 10:22:04;;;;;;;4.10;2.73;;;8.40;99.90;8.40;101581.00;;;;4915465;28;92726;-64
2021/11/18 10:24:37;;;;;;;4.03;2.70;;;8.40;99.90;8.50;101582.00;;;;4916989;28;92909;-66
2021/11/18 10:27:16;;;;;;;7.17;2.70;;;8.50;99.90;8.60;101573.00;;;;4916732;28;92852;-65
2021/11/18 10:30:09;;;;;;;6.87;2.73;;;8.60;99.90;8.70;101577.00;;;;4915283;28;93116;-64
2021/11/18 10:33:02;;;;;;;9.20;2.93;;;8.70;99.90;8.80;101580.00;;;;4917115;28;93944;-64
2021/11/18 10:36:04;;;;;;;5.57;3.33;;;8.80;99.90;8.90;101570.00;;;;4921428;28;93307;-64
2021/11/18 10:38:33;;;;;;;6.83;2.60;;;8.90;99.90;9.00;101563.00;;;;4916684;28;93448;-64
2021/11/18 10:41:27;;;;;;;5.40;2.40;;;9.00;99.90;9.20;101558.00;;;;4916792;28;92771;-65
2021/11/18 10:44:17;;;;;;;5.70;2.73;;;9.10;99.90;9.50;101554.00;;;;4927965;28;92912;-64
2021/11/18 10:47:16;;;;;;;6.67;3.37;;;9.40;99.90;9.70;101545.00;;;;4936164;28;92958;-64
2021/11/18 10:50:05;;;;;;;5.10;2.60;;;9.70;99.90;10.00;101548.00;;;;4934196;28;93416;-64
2021/11/18 10:52:41;;;;;;;4.30;2.40;;;9.90;99.90;10.20;101547.00;;;;4936593;28;92174;-64
2021/11/18 10:55:28;;;;;;;4.80;3.30;;;10.10;99.90;10.50;101547.00;;;;4936001;28;93364;-64
2021/11/18 10:58:25;;;;;;;6.97;2.70;;;10.40;99.90;10.90;101551.00;;;;4932532;28;113285;-65
2021/11/18 11:00:58;;;;;;;6.03;2.77;;;10.80;99.90;11.20;101549.00;;;;4929821;28;95517;-66
2021/11/18 11:03:35;;;;;;;4.03;2.97;;;11.00;99.90;11.50;101542.00;;;;4936335;28;93137;-64
2021/11/18 11:06:17;;;;;;;8.90;3.57;;;11.30;99.90;11.70;101547.00;;;;4936255;28;92902;-65
2021/11/18 11:09:03;;;;;;;9.03;3.43;;;11.60;99.90;12.00;101554.00;;;;4935714;28;93357;-65
2021/11/18 11:11:56;;;;;;;4.37;2.73;;;11.80;99.90;12.10;101555.00;;;;4925567;28;96321;-66